createdAt,value
2018-04-22T00:00:38.286Z,1009.49
2018-04-22T00:01:38.273Z,1009.47
2018-04-22T00:02:38.267Z,1009.43
2018-04-22T00:03:38.248Z,1009.42
2018-04-22T00:04:38.235Z,1009.37
2018-04-22T00:05:38.221Z,1009.39
2018-04-22T00:06:38.208Z,1009.41
2018-04-22T00:07:38.201Z,1009.39
2018-04-22T00:08:38.181Z,1009.37
2018-04-22T00:09:38.174Z,1009.37
2018-04-22T00:10:38.155Z,1009.38
2018-04-22T00:11:38.144Z,1009.38
2018-04-22T00:12:38.129Z,1009.37
2018-04-22T00:13:38.123Z,1009.36
2018-04-22T00:14:38.104Z,1009.33
2018-04-22T00:15:38.092Z,1009.28
2018-04-22T00:16:38.079Z,1009.26
2018-04-22T00:17:38.067Z,1009.24
2018-04-22T00:18:38.051Z,1009.22
2018-04-22T00:19:38.044Z,1009.16
2018-04-22T00:20:38.027Z,1009.16
2018-04-22T00:21:38.015Z,1009.13
2018-04-22T00:22:38.002Z,1009.13
2018-04-22T00:23:37.986Z,1009.14
2018-04-22T00:24:37.975Z,1009.11
2018-04-22T00:25:37.963Z,1009.1
2018-04-22T00:26:37.948Z,1009.12
2018-04-22T00:27:37.936Z,1009.09
2018-04-22T00:28:37.921Z,1009.09
2018-04-22T00:29:37.909Z,1009.06
2018-04-22T00:30:37.901Z,1009.04
2018-04-22T00:31:37.896Z,1009.04
2018-04-22T00:32:37.870Z,1009.02
2018-04-22T00:33:37.857Z,1009.01
2018-04-22T00:34:37.845Z,1009.01
2018-04-22T00:35:37.831Z,1009.02
2018-04-22T00:36:37.818Z,1009.03
2018-04-22T00:37:37.804Z,1009.03
2018-04-22T00:38:37.791Z,1009.01
2018-04-22T00:39:37.781Z,1009
2018-04-22T00:40:37.764Z,1009
2018-04-22T00:41:37.755Z,1008.95
2018-04-22T00:42:37.737Z,1008.92
2018-04-22T00:43:37.726Z,1008.92
2018-04-22T00:44:37.716Z,1008.87
2018-04-22T00:45:37.701Z,1008.85
2018-04-22T00:46:37.687Z,1008.81
2018-04-22T00:47:37.678Z,1008.79
2018-04-22T00:48:37.661Z,1008.72
2018-04-22T00:49:37.647Z,1008.7
2018-04-22T00:50:37.635Z,1008.67
2018-04-22T00:51:37.625Z,1008.64
2018-04-22T00:52:37.610Z,1008.64
2018-04-22T00:53:37.596Z,1008.6
2018-04-22T00:54:37.583Z,1008.6
2018-04-22T00:55:37.568Z,1008.56
2018-04-22T00:56:37.555Z,1008.54
2018-04-22T00:57:37.541Z,1008.5
2018-04-22T00:58:37.532Z,1008.48
2018-04-22T00:59:37.515Z,1008.54
2018-04-22T01:00:37.501Z,1008.55
2018-04-22T01:01:37.491Z,1008.5
2018-04-22T01:02:37.478Z,1008.55
2018-04-22T01:03:37.460Z,1008.51
2018-04-22T01:04:37.451Z,1008.5
2018-04-22T01:05:37.437Z,1008.46
2018-04-22T01:06:37.424Z,1008.46
2018-04-22T01:07:37.406Z,1008.46
2018-04-22T01:08:37.399Z,1008.44
2018-04-22T01:09:37.382Z,1008.47
2018-04-22T01:10:37.368Z,1008.44
2018-04-22T01:11:37.355Z,1008.48
2018-04-22T01:12:37.347Z,1008.45
2018-04-22T01:13:37.328Z,1008.43
2018-04-22T01:14:37.314Z,1008.44
2018-04-22T01:15:37.301Z,1008.44
2018-04-22T01:16:37.290Z,1008.46
2018-04-22T01:17:37.274Z,1008.43
2018-04-22T01:18:37.261Z,1008.46
2018-04-22T01:19:37.247Z,1008.4
2018-04-22T01:20:37.308Z,1008.4
2018-04-22T01:21:37.219Z,1008.41
2018-04-22T01:22:37.206Z,1008.36
2018-04-22T01:23:37.193Z,1008.38
2018-04-22T01:24:37.182Z,1008.38
2018-04-22T01:25:37.168Z,1008.37
2018-04-22T01:26:37.161Z,1008.4
2018-04-22T01:27:37.140Z,1008.4
2018-04-22T01:28:37.128Z,1008.41
2018-04-22T01:29:37.111Z,1008.38
2018-04-22T01:30:37.101Z,1008.37
2018-04-22T01:31:37.090Z,1008.41
2018-04-22T01:32:37.073Z,1008.38
2018-04-22T01:33:37.063Z,1008.37
2018-04-22T01:34:37.047Z,1008.3
2018-04-22T01:35:37.032Z,1008.26
2018-04-22T01:36:37.020Z,1008.25
2018-04-22T01:37:37.008Z,1008.23
2018-04-22T01:38:36.994Z,1008.21
2018-04-22T01:39:36.989Z,1008.16
2018-04-22T01:40:36.966Z,1008.14
2018-04-22T01:41:36.953Z,1008.15
2018-04-22T01:42:36.938Z,1008.14
2018-04-22T01:43:36.924Z,1008.14
2018-04-22T01:44:36.912Z,1008.16
2018-04-22T01:45:36.900Z,1008.16
2018-04-22T01:46:36.883Z,1008.24
2018-04-22T01:47:36.873Z,1008.21
2018-04-22T01:48:36.857Z,1008.2
2018-04-22T01:49:36.848Z,1008.22
2018-04-22T01:50:36.829Z,1008.25
2018-04-22T01:51:36.817Z,1008.23
2018-04-22T01:52:36.803Z,1008.21
2018-04-22T01:53:36.787Z,1008.22
2018-04-22T01:54:36.777Z,1008.16
2018-04-22T01:55:36.759Z,1008.17
2018-04-22T01:56:36.746Z,1008.13
2018-04-22T01:57:36.737Z,1008.11
2018-04-22T01:58:36.717Z,1008.12
2018-04-22T01:59:36.707Z,1008.09
2018-04-22T02:00:36.691Z,1008.11
2018-04-22T02:01:36.677Z,1008.08
2018-04-22T02:02:36.664Z,1008.05
2018-04-22T02:03:36.651Z,1008.02
2018-04-22T02:04:36.635Z,1008.03
2018-04-22T02:05:36.624Z,1008.02
2018-04-22T02:06:36.607Z,1008.01
2018-04-22T02:07:36.594Z,1008
2018-04-22T02:08:36.585Z,1007.99
2018-04-22T02:09:36.564Z,1007.97
2018-04-22T02:10:36.556Z,1008
2018-04-22T02:11:36.543Z,1007.98
2018-04-22T02:12:36.523Z,1007.98
2018-04-22T02:13:36.509Z,1007.97
2018-04-22T02:14:36.496Z,1007.96
2018-04-22T02:15:36.482Z,1007.93
2018-04-22T02:16:36.468Z,1007.88
2018-04-22T02:17:36.457Z,1007.86
2018-04-22T02:18:36.442Z,1007.91
2018-04-22T02:19:36.427Z,1007.89
2018-04-22T02:20:36.415Z,1007.89
2018-04-22T02:21:36.399Z,1007.89
2018-04-22T02:22:36.385Z,1007.94
2018-04-22T02:23:36.372Z,1007.91
2018-04-22T02:24:36.362Z,1007.9
2018-04-22T02:25:36.343Z,1007.86
2018-04-22T02:26:36.329Z,1007.85
2018-04-22T02:27:36.316Z,1007.8
2018-04-22T02:28:36.302Z,1007.8
2018-04-22T02:29:36.287Z,1007.76
2018-04-22T02:30:36.274Z,1007.72
2018-04-22T02:31:36.262Z,1007.72
2018-04-22T02:32:36.249Z,1007.69
2018-04-22T02:33:36.234Z,1007.71
2018-04-22T02:34:36.215Z,1007.65
2018-04-22T02:35:36.207Z,1007.67
2018-04-22T02:36:36.189Z,1007.61
2018-04-22T02:37:36.177Z,1007.66
2018-04-22T02:38:36.163Z,1007.67
2018-04-22T02:39:36.147Z,1007.65
2018-04-22T02:40:36.132Z,1007.62
2018-04-22T02:41:36.118Z,1007.61
2018-04-22T02:42:36.104Z,1007.58
2018-04-22T02:43:36.174Z,1007.51
2018-04-22T02:44:36.081Z,1007.47
2018-04-22T02:45:36.069Z,1007.49
2018-04-22T02:46:36.057Z,1007.51
2018-04-22T02:47:36.035Z,1007.55
2018-04-22T02:48:36.034Z,1007.55
2018-04-22T02:49:36.011Z,1007.59
2018-04-22T02:50:35.990Z,1007.58
2018-04-22T02:51:35.979Z,1007.54
2018-04-22T02:52:35.963Z,1007.53
2018-04-22T02:53:35.951Z,1007.57
2018-04-22T02:54:35.940Z,1007.56
2018-04-22T02:55:35.921Z,1007.64
2018-04-22T02:56:35.923Z,1007.61
2018-04-22T02:57:35.900Z,1007.6
2018-04-22T02:58:35.880Z,1007.57
2018-04-22T02:59:35.867Z,1007.51
2018-04-22T03:00:35.857Z,1007.5
2018-04-22T03:01:35.843Z,1007.48
2018-04-22T03:02:35.826Z,1007.49
2018-04-22T03:03:35.819Z,1007.48
2018-04-22T03:04:35.797Z,1007.47
2018-04-22T03:05:35.783Z,1007.46
2018-04-22T03:06:35.768Z,1007.42
2018-04-22T03:07:35.754Z,1007.41
2018-04-22T03:08:35.754Z,1007.4
2018-04-22T03:09:35.728Z,1007.4
2018-04-22T03:10:35.712Z,1007.41
2018-04-22T03:11:35.696Z,1007.42
2018-04-22T03:12:35.684Z,1007.42
2018-04-22T03:13:35.670Z,1007.43
2018-04-22T03:14:35.655Z,1007.36
2018-04-22T03:15:35.644Z,1007.35
2018-04-22T03:16:35.629Z,1007.3
2018-04-22T03:17:35.617Z,1007.28
2018-04-22T03:18:35.598Z,1007.27
2018-04-22T03:19:35.585Z,1007.29
2018-04-22T03:20:35.572Z,1007.27
2018-04-22T03:21:35.560Z,1007.27
2018-04-22T03:22:35.548Z,1007.31
2018-04-22T03:23:35.534Z,1007.32
2018-04-22T03:24:35.517Z,1007.33
2018-04-22T03:25:35.501Z,1007.33
2018-04-22T03:26:35.485Z,1007.31
2018-04-22T03:27:35.473Z,1007.31
2018-04-22T03:28:35.460Z,1007.34
2018-04-22T03:29:35.445Z,1007.29
2018-04-22T03:30:35.433Z,1007.17
2018-04-22T03:31:35.419Z,1007.17
2018-04-22T03:32:35.410Z,1007.18
2018-04-22T03:33:35.393Z,1007.14
2018-04-22T03:34:35.374Z,1007.1
2018-04-22T03:35:35.363Z,1007.1
2018-04-22T03:36:35.364Z,1007.09
2018-04-22T03:37:35.335Z,1007.05
2018-04-22T03:38:35.320Z,1007.04
2018-04-22T03:39:35.315Z,1007.02
2018-04-22T03:40:35.294Z,1007.04
2018-04-22T03:41:35.281Z,1006.98
2018-04-22T03:42:35.271Z,1006.97
2018-04-22T03:43:35.260Z,1006.95
2018-04-22T03:44:35.239Z,1006.93
2018-04-22T03:45:35.230Z,1006.91
2018-04-22T03:46:35.213Z,1006.89
2018-04-22T03:47:35.201Z,1006.87
2018-04-22T03:48:35.183Z,1006.86
2018-04-22T03:49:35.169Z,1006.85
2018-04-22T03:50:35.155Z,1006.85
2018-04-22T03:51:35.143Z,1006.85
2018-04-22T03:52:35.132Z,1006.84
2018-04-22T03:53:35.113Z,1006.82
2018-04-22T03:54:35.099Z,1006.83
2018-04-22T03:55:35.083Z,1006.84
2018-04-22T03:56:35.071Z,1006.8
2018-04-22T03:57:35.056Z,1006.82
2018-04-22T03:58:35.043Z,1006.79
2018-04-22T03:59:35.029Z,1006.75
2018-04-22T04:00:35.015Z,1006.74
2018-04-22T04:01:35.003Z,1006.73
2018-04-22T04:02:34.989Z,1006.74
2018-04-22T04:03:34.976Z,1006.72
2018-04-22T04:04:34.959Z,1006.72
2018-04-22T04:05:34.946Z,1006.69
2018-04-22T04:06:34.932Z,1006.7
2018-04-22T04:07:34.918Z,1006.69
2018-04-22T04:08:34.910Z,1006.68
2018-04-22T04:09:34.889Z,1006.65
2018-04-22T04:10:34.904Z,1006.62
2018-04-22T04:11:34.860Z,1006.62
2018-04-22T04:12:34.851Z,1006.64
2018-04-22T04:13:34.833Z,1006.62
2018-04-22T04:14:34.822Z,1006.58
2018-04-22T04:15:34.805Z,1006.51
2018-04-22T04:16:34.794Z,1006.55
2018-04-22T04:17:34.778Z,1006.54
2018-04-22T04:18:34.763Z,1006.49
2018-04-22T04:19:34.753Z,1006.51
2018-04-22T04:20:34.737Z,1006.48
2018-04-22T04:21:34.726Z,1006.49
2018-04-22T04:22:34.708Z,1006.47
2018-04-22T04:23:34.695Z,1006.46
2018-04-22T04:24:34.680Z,1006.47
2018-04-22T04:25:34.667Z,1006.46
2018-04-22T04:26:34.653Z,1006.43
2018-04-22T04:27:34.638Z,1006.39
2018-04-22T04:28:34.625Z,1006.41
2018-04-22T04:29:34.611Z,1006.34
2018-04-22T04:30:34.599Z,1006.33
2018-04-22T04:31:34.583Z,1006.33
2018-04-22T04:32:34.567Z,1006.34
2018-04-22T04:33:34.560Z,1006.34
2018-04-22T04:34:34.542Z,1006.32
2018-04-22T04:35:34.526Z,1006.27
2018-04-22T04:36:34.512Z,1006.25
2018-04-22T04:37:34.498Z,1006.27
2018-04-22T04:38:34.486Z,1006.23
2018-04-22T04:39:34.470Z,1006.24
2018-04-22T04:40:34.455Z,1006.21
2018-04-22T04:41:34.644Z,1006.25
2018-04-22T04:42:34.433Z,1006.24
2018-04-22T04:43:34.413Z,1006.21
2018-04-22T04:44:34.399Z,1006.28
2018-04-22T04:45:34.386Z,1006.29
2018-04-22T04:46:34.375Z,1006.29
2018-04-22T04:47:34.356Z,1006.33
2018-04-22T04:48:34.342Z,1006.28
2018-04-22T04:49:34.329Z,1006.24
2018-04-22T04:50:34.317Z,1006.26
2018-04-22T04:51:34.300Z,1006.28
2018-04-22T04:52:34.289Z,1006.29
2018-04-22T04:53:34.273Z,1006.27
2018-04-22T04:54:34.260Z,1006.27
2018-04-22T04:55:34.246Z,1006.28
2018-04-22T04:56:34.231Z,1006.23
2018-04-22T04:57:34.217Z,1006.25
2018-04-22T04:58:34.203Z,1006.27
2018-04-22T04:59:34.188Z,1006.26
2018-04-22T05:00:34.172Z,1006.24
2018-04-22T05:01:34.162Z,1006.3
2018-04-22T05:02:34.145Z,1006.26
2018-04-22T05:03:34.129Z,1006.25
2018-04-22T05:04:34.123Z,1006.28
2018-04-22T05:05:34.103Z,1006.28
2018-04-22T05:06:34.088Z,1006.22
2018-04-22T05:07:34.082Z,1006.22
2018-04-22T05:08:34.062Z,1006.2
2018-04-22T05:09:34.050Z,1006.2
2018-04-22T05:10:34.032Z,1006.15
2018-04-22T05:11:34.018Z,1006.21
2018-04-22T05:12:34.002Z,1006.21
2018-04-22T05:13:33.991Z,1006.16
2018-04-22T05:14:33.975Z,1006.13
2018-04-22T05:15:33.960Z,1006.19
2018-04-22T05:16:33.944Z,1006.15
2018-04-22T05:17:33.931Z,1006.17
2018-04-22T05:18:33.918Z,1006.18
2018-04-22T05:19:33.902Z,1006.17
2018-04-22T05:20:33.889Z,1006.2
2018-04-22T05:21:33.875Z,1006.17
2018-04-22T05:22:33.859Z,1006.14
2018-04-22T05:23:33.845Z,1006.16
2018-04-22T05:24:33.830Z,1006.13
2018-04-22T05:25:33.818Z,1006.12
2018-04-22T05:26:33.802Z,1006.11
2018-04-22T05:27:33.788Z,1006.1
2018-04-22T05:28:33.775Z,1006.07
2018-04-22T05:29:33.761Z,1006.12
2018-04-22T05:30:33.747Z,1006.09
2018-04-22T05:31:33.735Z,1006.07
2018-04-22T05:32:33.720Z,1006.05
2018-04-22T05:33:33.705Z,1006.05
2018-04-22T05:34:33.691Z,1006.07
2018-04-22T05:35:33.678Z,1006.05
2018-04-22T05:36:33.729Z,1006.04
2018-04-22T05:37:33.649Z,1006.05
2018-04-22T05:38:33.641Z,1006.03
2018-04-22T05:39:33.625Z,1006.07
2018-04-22T05:40:33.607Z,1006.04
2018-04-22T05:41:33.594Z,1006.07
2018-04-22T05:42:33.581Z,1006.01
2018-04-22T05:43:33.569Z,1005.98
2018-04-22T05:44:33.552Z,1005.97
2018-04-22T05:45:33.538Z,1006
2018-04-22T05:46:33.527Z,1005.94
2018-04-22T05:47:33.514Z,1005.93
2018-04-22T05:48:33.497Z,1005.94
2018-04-22T05:49:33.487Z,1005.93
2018-04-22T05:50:33.471Z,1005.91
2018-04-22T05:51:33.462Z,1005.92
2018-04-22T05:52:33.444Z,1005.85
2018-04-22T05:53:33.432Z,1005.83
2018-04-22T05:54:33.417Z,1005.81
2018-04-22T05:55:33.404Z,1005.86
2018-04-22T05:56:33.389Z,1005.85
2018-04-22T05:57:33.375Z,1005.83
2018-04-22T05:58:33.365Z,1005.84
2018-04-22T05:59:33.349Z,1005.79
2018-04-22T06:00:33.334Z,1005.77
2018-04-22T06:01:33.325Z,1005.76
2018-04-22T06:02:33.309Z,1005.78
2018-04-22T06:03:33.294Z,1005.75
2018-04-22T06:04:33.283Z,1005.75
2018-04-22T06:05:33.270Z,1005.78
2018-04-22T06:06:33.255Z,1005.75
2018-04-22T06:07:33.248Z,1005.76
2018-04-22T06:08:33.259Z,1005.75
2018-04-22T06:09:33.217Z,1005.71
2018-04-22T06:10:33.203Z,1005.77
2018-04-22T06:11:33.191Z,1005.72
2018-04-22T06:12:33.177Z,1005.76
2018-04-22T06:13:33.182Z,1005.74
2018-04-22T06:14:33.151Z,1005.74
2018-04-22T06:15:33.136Z,1005.72
2018-04-22T06:16:33.124Z,1005.76
2018-04-22T06:17:33.111Z,1005.73
2018-04-22T06:18:33.098Z,1005.69
2018-04-22T06:19:33.085Z,1005.73
2018-04-22T06:20:33.072Z,1005.69
2018-04-22T06:21:33.065Z,1005.65
2018-04-22T06:22:33.049Z,1005.61
2018-04-22T06:23:33.038Z,1005.58
2018-04-22T06:24:33.023Z,1005.62
2018-04-22T06:25:33.008Z,1005.57
2018-04-22T06:26:32.998Z,1005.59
2018-04-22T06:27:32.984Z,1005.56
2018-04-22T06:28:32.971Z,1005.54
2018-04-22T06:29:32.958Z,1005.54
2018-04-22T06:30:32.943Z,1005.47
2018-04-22T06:31:32.930Z,1005.45
2018-04-22T06:32:32.920Z,1005.5
2018-04-22T06:33:32.959Z,1005.52
2018-04-22T06:34:32.892Z,1005.54
2018-04-22T06:35:32.879Z,1005.54
2018-04-22T06:36:32.868Z,1005.49
2018-04-22T06:37:32.854Z,1005.54
2018-04-22T06:38:32.842Z,1005.43
2018-04-22T06:39:32.903Z,1005.46
2018-04-22T06:40:32.817Z,1005.51
2018-04-22T06:41:33.016Z,1005.5
2018-04-22T06:42:32.795Z,1005.44
2018-04-22T06:43:32.784Z,1005.36
2018-04-22T06:44:32.776Z,1005.37
2018-04-22T06:45:32.765Z,1005.35
2018-04-22T06:46:32.745Z,1005.33
2018-04-22T06:47:32.733Z,1005.3
2018-04-22T06:48:32.725Z,1005.3
2018-04-22T06:49:32.706Z,1005.28
2018-04-22T06:50:32.699Z,1005.27
2018-04-22T06:51:32.683Z,1005.22
2018-04-22T06:52:32.679Z,1005.25
2018-04-22T06:53:32.662Z,1005.32
2018-04-22T06:54:32.645Z,1005.29
2018-04-22T06:55:32.634Z,1005.24
2018-04-22T06:56:32.626Z,1005.2
2018-04-22T06:57:32.610Z,1005.18
2018-04-22T06:58:32.600Z,1005.22
2018-04-22T06:59:32.592Z,1005.23
2018-04-22T07:00:32.582Z,1005.2
2018-04-22T07:01:32.561Z,1005.19
2018-04-22T07:02:32.550Z,1005.14
2018-04-22T07:03:32.537Z,1005.2
2018-04-22T07:04:32.532Z,1005.22
2018-04-22T07:05:32.514Z,1005.26
2018-04-22T07:06:32.504Z,1005.27
2018-04-22T07:07:32.492Z,1005.28
2018-04-22T07:08:32.686Z,1005.26
2018-04-22T07:09:32.469Z,1005.22
2018-04-22T07:10:32.457Z,1005.2
2018-04-22T07:11:32.447Z,1005.18
2018-04-22T07:12:32.435Z,1005.2
2018-04-22T07:13:32.424Z,1005.19
2018-04-22T07:14:32.413Z,1005.14
2018-04-22T07:15:32.402Z,1005.2
2018-04-22T07:16:32.394Z,1005.18
2018-04-22T07:17:32.378Z,1005.2
2018-04-22T07:18:32.368Z,1005.21
2018-04-22T07:19:32.356Z,1005.21
2018-04-22T07:20:32.359Z,1005.2
2018-04-22T07:21:32.335Z,1005.23
2018-04-22T07:22:32.527Z,1005.23
2018-04-22T07:23:32.369Z,1005.21
2018-04-22T07:24:32.308Z,1005.22
2018-04-22T07:25:32.297Z,1005.22
2018-04-22T07:26:32.285Z,1005.23
2018-04-22T07:27:32.271Z,1005.22
2018-04-22T07:28:32.260Z,1005.22
2018-04-22T07:29:32.257Z,1005.22
2018-04-22T07:30:32.241Z,1005.21
2018-04-22T07:31:32.229Z,1005.24
2018-04-22T07:32:32.218Z,1005.26
2018-04-22T07:33:32.209Z,1005.24
2018-04-22T07:34:32.196Z,1005.22
2018-04-22T07:35:32.188Z,1005.25
2018-04-22T07:36:32.378Z,1005.25
2018-04-22T07:37:32.166Z,1005.21
2018-04-22T07:38:32.157Z,1005.24
2018-04-22T07:39:32.146Z,1005.22
2018-04-22T07:40:32.161Z,1005.23
2018-04-22T07:41:32.127Z,1005.2
2018-04-22T07:42:32.152Z,1005.21
2018-04-22T07:43:32.107Z,1005.22
2018-04-22T07:44:32.097Z,1005.2
2018-04-22T07:45:32.087Z,1005.24
2018-04-22T07:46:32.078Z,1005.25
2018-04-22T07:47:32.068Z,1005.25
2018-04-22T07:48:32.057Z,1005.28
2018-04-22T07:49:32.048Z,1005.24
2018-04-22T07:50:32.042Z,1005.23
2018-04-22T07:51:32.230Z,1005.22
2018-04-22T07:52:32.019Z,1005.21
2018-04-22T07:53:32.009Z,1005.2
2018-04-22T07:54:31.999Z,1005.2
2018-04-22T07:55:31.991Z,1005.21
2018-04-22T07:56:31.981Z,1005.19
2018-04-22T07:57:31.976Z,1005.19
2018-04-22T07:58:31.967Z,1005.16
2018-04-22T07:59:31.955Z,1005.09
2018-04-22T08:00:31.948Z,1005.12
2018-04-22T08:01:31.940Z,1005.11
2018-04-22T08:02:31.937Z,1005.16
2018-04-22T08:03:31.919Z,1005.12
2018-04-22T08:04:31.913Z,1005.12
2018-04-22T08:05:31.900Z,1005.18
2018-04-22T08:06:31.899Z,1005.15
2018-04-22T08:07:31.881Z,1005.14
2018-04-22T08:08:31.873Z,1005.17
2018-04-22T08:09:31.871Z,1005.22
2018-04-22T08:10:31.856Z,1005.27
2018-04-22T08:11:32.104Z,1005.26
2018-04-22T08:12:31.838Z,1005.27
2018-04-22T08:13:31.834Z,1005.32
2018-04-22T08:14:31.828Z,1005.3
2018-04-22T08:15:31.822Z,1005.28
2018-04-22T08:16:31.808Z,1005.23
2018-04-22T08:17:31.800Z,1005.21
2018-04-22T08:18:31.792Z,1005.22
2018-04-22T08:19:31.841Z,1005.15
2018-04-22T08:20:31.778Z,1005.2
2018-04-22T08:21:31.772Z,1005.23
2018-04-22T08:22:31.770Z,1005.24
2018-04-22T08:23:31.763Z,1005.23
2018-04-22T08:24:31.760Z,1005.19
2018-04-22T08:25:31.754Z,1005.21
2018-04-22T08:26:31.740Z,1005.22
2018-04-22T08:27:31.747Z,1005.16
2018-04-22T08:28:31.730Z,1005.12
2018-04-22T08:29:31.722Z,1005.13
2018-04-22T08:30:31.717Z,1005.09
2018-04-22T08:31:31.713Z,1005.1
2018-04-22T08:32:31.708Z,1005.13
2018-04-22T08:33:31.700Z,1005.18
2018-04-22T08:34:31.694Z,1005.16
2018-04-22T08:35:31.694Z,1005.16
2018-04-22T08:36:31.685Z,1005.1
2018-04-22T08:37:31.681Z,1005.03
2018-04-22T08:38:31.673Z,1005.07
2018-04-22T08:39:31.671Z,1005.06
2018-04-22T08:40:31.664Z,1005.04
2018-04-22T08:41:31.861Z,1005.03
2018-04-22T08:42:31.658Z,1005.01
2018-04-22T08:43:31.650Z,1005.01
2018-04-22T08:44:31.645Z,1005.01
2018-04-22T08:45:31.651Z,1005.01
2018-04-22T08:46:31.643Z,1004.99
2018-04-22T08:47:31.630Z,1005.03
2018-04-22T08:48:31.629Z,1005.02
2018-04-22T08:49:31.620Z,1005.03
2018-04-22T08:50:31.615Z,1005.02
2018-04-22T08:51:31.610Z,1005.06
2018-04-22T08:52:31.615Z,1004.99
2018-04-22T08:53:31.601Z,1004.97
2018-04-22T08:54:31.597Z,1004.93
2018-04-22T08:55:31.589Z,1004.92
2018-04-22T08:56:31.585Z,1004.9
2018-04-22T08:57:31.581Z,1004.89
2018-04-22T08:58:31.575Z,1004.9
2018-04-22T08:59:31.569Z,1004.91
2018-04-22T09:00:31.563Z,1004.91
2018-04-22T09:01:31.559Z,1004.89
2018-04-22T09:02:31.553Z,1004.87
2018-04-22T09:03:31.549Z,1004.86
2018-04-22T09:04:31.542Z,1004.84
2018-04-22T09:05:31.537Z,1004.83
2018-04-22T09:06:31.531Z,1004.82
2018-04-22T09:07:31.527Z,1004.79
2018-04-22T09:08:31.521Z,1004.82
2018-04-22T09:09:31.515Z,1004.85
2018-04-22T09:10:31.511Z,1004.88
2018-04-22T09:11:31.504Z,1004.92
2018-04-22T09:12:31.500Z,1004.96
2018-04-22T09:13:31.494Z,1004.91
2018-04-22T09:14:31.493Z,1004.77
2018-04-22T09:15:31.484Z,1004.73
2018-04-22T09:16:31.479Z,1004.72
2018-04-22T09:17:31.478Z,1004.78
2018-04-22T09:18:31.470Z,1004.74
2018-04-22T09:19:31.466Z,1004.7
2018-04-22T09:20:31.461Z,1004.74
2018-04-22T09:21:31.462Z,1004.69
2018-04-22T09:22:31.452Z,1004.68
2018-04-22T09:23:31.451Z,1004.66
2018-04-22T09:24:31.449Z,1004.68
2018-04-22T09:25:31.444Z,1004.7
2018-04-22T09:26:31.435Z,1004.72
2018-04-22T09:27:31.431Z,1004.7
2018-04-22T09:28:31.429Z,1004.68
2018-04-22T09:29:31.424Z,1004.69
2018-04-22T09:30:31.418Z,1004.71
2018-04-22T09:31:31.416Z,1004.63
2018-04-22T09:32:31.417Z,1004.65
2018-04-22T09:33:31.408Z,1004.64
2018-04-22T09:34:31.400Z,1004.63
2018-04-22T09:35:31.396Z,1004.63
2018-04-22T09:36:31.392Z,1004.6
2018-04-22T09:37:31.391Z,1004.65
2018-04-22T09:38:31.382Z,1004.65
2018-04-22T09:39:31.379Z,1004.65
2018-04-22T09:40:31.372Z,1004.65
2018-04-22T09:41:31.369Z,1004.62
2018-04-22T09:42:31.364Z,1004.62
2018-04-22T09:43:31.358Z,1004.64
2018-04-22T09:44:31.353Z,1004.62
2018-04-22T09:45:31.348Z,1004.58
2018-04-22T09:46:31.343Z,1004.63
2018-04-22T09:47:31.338Z,1004.6
2018-04-22T09:48:31.334Z,1004.57
2018-04-22T09:49:31.327Z,1004.56
2018-04-22T09:50:31.321Z,1004.49
2018-04-22T09:51:31.341Z,1004.51
2018-04-22T09:52:31.313Z,1004.51
2018-04-22T09:53:31.308Z,1004.49
2018-04-22T09:54:31.309Z,1004.52
2018-04-22T09:55:31.297Z,1004.49
2018-04-22T09:56:31.293Z,1004.48
2018-04-22T09:57:31.292Z,1004.49
2018-04-22T09:58:31.284Z,1004.5
2018-04-22T09:59:31.278Z,1004.51
2018-04-22T10:00:31.273Z,1004.46
2018-04-22T10:01:31.282Z,1004.46
2018-04-22T10:02:31.265Z,1004.51
2018-04-22T10:03:31.257Z,1004.49
2018-04-22T10:04:31.255Z,1004.5
2018-04-22T10:05:31.247Z,1004.47
2018-04-22T10:06:31.246Z,1004.45
2018-04-22T10:07:31.236Z,1004.45
2018-04-22T10:08:31.230Z,1004.43
2018-04-22T10:09:31.228Z,1004.41
2018-04-22T10:10:31.220Z,1004.45
2018-04-22T10:11:31.218Z,1004.4
2018-04-22T10:12:31.212Z,1004.37
2018-04-22T10:13:31.209Z,1004.36
2018-04-22T10:14:31.203Z,1004.37
2018-04-22T10:15:31.212Z,1004.33
2018-04-22T10:16:31.234Z,1004.28
2018-04-22T10:17:31.187Z,1004.29
2018-04-22T10:18:31.180Z,1004.28
2018-04-22T10:19:31.179Z,1004.26
2018-04-22T10:20:31.171Z,1004.22
2018-04-22T10:21:31.168Z,1004.25
2018-04-22T10:22:31.162Z,1004.22
2018-04-22T10:23:31.158Z,1004.18
2018-04-22T10:24:31.152Z,1004.2
2018-04-22T10:25:31.153Z,1004.19
2018-04-22T10:26:31.145Z,1004.23
2018-04-22T10:27:31.144Z,1004.23
2018-04-22T10:28:31.344Z,1004.17
2018-04-22T10:29:31.131Z,1004.19
2018-04-22T10:30:31.130Z,1004.18
2018-04-22T10:31:31.124Z,1004.19
2018-04-22T10:32:31.120Z,1004.22
2018-04-22T10:33:31.116Z,1004.14
2018-04-22T10:34:31.114Z,1004.12
2018-04-22T10:35:31.112Z,1004.09
2018-04-22T10:36:31.114Z,1004.15
2018-04-22T10:37:31.103Z,1004.13
2018-04-22T10:38:31.103Z,1004.13
2018-04-22T10:39:31.100Z,1004.15
2018-04-22T10:40:31.093Z,1004.14
2018-04-22T10:41:31.096Z,1004.14
2018-04-22T10:42:31.088Z,1004.17
2018-04-22T10:43:31.085Z,1004.06
2018-04-22T10:44:31.083Z,1004.02
2018-04-22T10:45:31.080Z,1004.06
2018-04-22T10:46:31.079Z,1004.06
2018-04-22T10:47:31.075Z,1004.1
2018-04-22T10:48:31.071Z,1004.09
2018-04-22T10:49:31.069Z,1004.09
2018-04-22T10:50:31.068Z,1004.06
2018-04-22T10:51:31.066Z,1004.09
2018-04-22T10:52:31.062Z,1004.04
2018-04-22T10:53:31.069Z,1004.04
2018-04-22T10:54:31.062Z,1003.98
2018-04-22T10:55:31.056Z,1004
2018-04-22T10:56:31.059Z,1004.02
2018-04-22T10:57:31.060Z,1003.97
2018-04-22T10:58:31.062Z,1003.94
2018-04-22T10:59:31.057Z,1003.95
2018-04-22T11:00:31.061Z,1003.92
2018-04-22T11:01:31.062Z,1003.85
2018-04-22T11:02:31.054Z,1003.91
2018-04-22T11:03:31.054Z,1003.86
2018-04-22T11:04:31.052Z,1003.87
2018-04-22T11:05:31.057Z,1003.95
2018-04-22T11:06:31.061Z,1003.94
2018-04-22T11:07:31.264Z,1003.94
2018-04-22T11:08:31.055Z,1003.87
2018-04-22T11:09:31.053Z,1003.89
2018-04-22T11:10:31.053Z,1003.91
2018-04-22T11:11:31.055Z,1003.92
2018-04-22T11:12:31.054Z,1003.84
2018-04-22T11:13:31.051Z,1003.86
2018-04-22T11:14:31.053Z,1003.85
2018-04-22T11:15:31.053Z,1003.8
2018-04-22T11:16:31.051Z,1003.82
2018-04-22T11:17:31.050Z,1003.84
2018-04-22T11:18:31.054Z,1003.83
2018-04-22T11:19:31.049Z,1003.8
2018-04-22T11:20:31.049Z,1003.79
2018-04-22T11:21:31.051Z,1003.83
2018-04-22T11:22:31.061Z,1003.83
2018-04-22T11:23:31.050Z,1003.82
2018-04-22T11:24:31.044Z,1003.84
2018-04-22T11:25:31.046Z,1003.86
2018-04-22T11:26:31.043Z,1003.88
2018-04-22T11:27:31.043Z,1003.92
2018-04-22T11:28:31.041Z,1003.85
2018-04-22T11:29:31.040Z,1003.86
2018-04-22T11:30:31.044Z,1003.84
2018-04-22T11:31:31.040Z,1003.89
2018-04-22T11:32:31.044Z,1003.8
2018-04-22T11:33:31.086Z,1003.81
2018-04-22T11:34:31.044Z,1003.78
2018-04-22T11:35:31.058Z,1003.84
2018-04-22T11:36:31.042Z,1003.82
2018-04-22T11:37:31.044Z,1003.8
2018-04-22T11:38:31.054Z,1003.75
2018-04-22T11:39:31.046Z,1003.72
2018-04-22T11:40:31.049Z,1003.72
2018-04-22T11:41:31.059Z,1003.71
2018-04-22T11:42:31.048Z,1003.74
2018-04-22T11:43:31.052Z,1003.7
2018-04-22T11:44:31.054Z,1003.64
2018-04-22T11:45:31.058Z,1003.71
2018-04-22T11:46:31.058Z,1003.72
2018-04-22T11:47:31.256Z,1003.66
2018-04-22T11:48:31.055Z,1003.68
2018-04-22T11:49:31.057Z,1003.72
2018-04-22T11:50:31.061Z,1003.73
2018-04-22T11:51:31.060Z,1003.75
2018-04-22T11:52:31.057Z,1003.63
2018-04-22T11:53:31.090Z,1003.6
2018-04-22T11:54:31.065Z,1003.56
2018-04-22T11:55:31.060Z,1003.53
2018-04-22T11:56:31.057Z,1003.54
2018-04-22T11:57:31.057Z,1003.53
2018-04-22T11:58:31.062Z,1003.62
2018-04-22T11:59:31.057Z,1003.64
2018-04-22T12:00:31.059Z,1003.57
2018-04-22T12:01:31.059Z,1003.66
2018-04-22T12:02:31.121Z,1003.6
2018-04-22T12:03:31.064Z,1003.63
2018-04-22T12:04:31.059Z,1003.6
2018-04-22T12:05:31.060Z,1003.62
2018-04-22T12:06:31.130Z,1003.57
2018-04-22T12:07:31.069Z,1003.52
2018-04-22T12:08:31.069Z,1003.47